Time;durP1;ratioP1;P1;durP2;ratioP2;P2;SDS_P1;SDS_P2;PMS_P1;PMS_P2;Temp;Humidity;BMP_temperature;BMP_pressure;BME280_temperature;BME280_humidity;BME280_pressure;Samples;Min_cycle;Max_cycle;Signal;HPM_P1;HPM_P2
2023/06/19 00:02:17;;;;;;;8.80;8.10;;;28.50;57.60;;;;;;4976638;28;20511;-71
2023/06/19 00:04:45;;;;;;;8.77;8.20;;;28.50;57.60;;;;;;4976705;28;20432;-70
2023/06/19 00:07:14;;;;;;;9.40;8.70;;;28.40;57.60;;;;;;4960802;28;20934;-70
2023/06/19 00:09:40;;;;;;;8.80;8.20;;;28.50;58.30;;;;;;4959215;28;20422;-70
2023/06/19 00:12:06;;;;;;;8.80;8.20;;;28.40;57.70;;;;;;4957082;28;20202;-71
2023/06/19 00:14:32;;;;;;;9.13;8.53;;;28.40;57.80;;;;;;4992764;28;20449;-71
2023/06/19 00:17:00;;;;;;;9.33;8.63;;;28.50;57.90;;;;;;4960605;28;20437;-71
2023/06/19 00:19:29;;;;;;;9.40;8.60;;;28.40;57.90;;;;;;4961295;28;20476;-71
2023/06/19 00:21:57;;;;;;;8.93;8.33;;;28.40;58.00;;;;;;4940796;28;20897;-71
2023/06/19 00:24:23;;;;;;;8.60;8.00;;;28.40;58.10;;;;;;4974580;28;20437;-71
2023/06/19 00:26:52;;;;;;;9.40;8.60;;;28.40;58.10;;;;;;4957537;28;20463;-71
2023/06/19 00:29:18;;;;;;;8.80;8.17;;;28.40;58.20;;;;;;4988786;28;20488;-71
2023/06/19 00:31:44;;;;;;;8.43;7.77;;;28.40;58.20;;;;;;4944094;28;20572;-71
2023/06/19 00:34:14;;;;;;;8.50;7.90;;;28.40;58.30;;;;;;4960002;28;20902;-71
2023/06/19 00:36:40;;;;;;;9.37;8.70;;;28.40;58.40;;;;;;4956956;28;20537;-71
2023/06/19 00:39:08;;;;;;;9.40;8.70;;;28.30;58.30;;;;;;4969807;28;20833;-71
2023/06/19 00:41:35;;;;;;;8.70;8.10;;;28.30;58.30;;;;;;4993482;28;20958;-71
2023/06/19 00:44:06;;;;;;;10.47;8.70;;;28.30;58.40;;;;;;4975882;28;20429;-71
2023/06/19 00:46:35;;;;;;;8.57;7.97;;;28.30;58.40;;;;;;4976134;28;20504;-70
2023/06/19 00:49:06;;;;;;;8.57;7.97;;;28.30;58.50;;;;;;4959835;28;20421;-71
2023/06/19 00:51:32;;;;;;;9.43;8.20;;;28.30;58.60;;;;;;4975593;28;20448;-71
2023/06/19 00:54:03;;;;;;;8.60;7.93;;;28.30;58.60;;;;;;4944195;28;20516;-71
2023/06/19 00:56:34;;;;;;;8.80;8.20;;;28.30;58.60;;;;;;4976829;28;20453;-71
2023/06/19 00:59:06;;;;;;;8.63;7.93;;;28.20;58.60;;;;;;5045056;23;20856;-72
2023/06/19 01:01:34;;;;;;;9.30;8.60;;;28.20;58.60;;;;;;4983800;28;20475;-72
2023/06/19 01:04:00;;;;;;;9.10;8.40;;;28.20;58.60;;;;;;5004761;28;20423;-72
2023/06/19 01:06:44;;;;;;;8.77;8.13;;;28.20;58.70;;;;;;4995407;28;20437;-72
2023/06/19 01:09:16;;;;;;;8.77;8.17;;;28.20;58.70;;;;;;5011692;28;20420;-72
2023/06/19 01:11:57;;;;;;;8.90;8.30;;;28.20;58.80;;;;;;4997517;28;20440;-73
2023/06/19 01:14:30;;;;;;;8.93;8.23;;;28.20;58.90;;;;;;4994242;28;20471;-72
2023/06/19 01:16:56;;;;;;;8.70;8.10;;;28.10;58.90;;;;;;4995217;28;20436;-72
2023/06/19 01:19:27;;;;;;;8.87;7.97;;;28.10;59.50;;;;;;5011844;28;20984;-72
2023/06/19 01:22:01;;;;;;;8.13;7.53;;;28.10;58.90;;;;;;4995111;28;20472;-71
2023/06/19 01:24:29;;;;;;;8.50;7.93;;;28.10;58.90;;;;;;4957265;28;20434;-72
2023/06/19 01:26:55;;;;;;;9.13;8.43;;;28.10;59.00;;;;;;4984405;28;20499;-72
2023/06/19 01:29:21;;;;;;;8.97;8.37;;;28.10;59.00;;;;;;4994842;28;20264;-72
2023/06/19 01:31:59;;;;;;;8.43;7.83;;;28.10;59.10;;;;;;5012270;28;20401;-72
2023/06/19 01:34:27;;;;;;;8.37;7.77;;;28.10;59.10;;;;;;5008357;28;20424;-72
2023/06/19 01:36:57;;;;;;;8.53;7.93;;;28.10;59.10;;;;;;4979090;28;20465;-72
2023/06/19 01:39:24;;;;;;;7.87;7.27;;;28.00;59.10;;;;;;5001196;28;20505;-72
2023/06/19 01:41:53;;;;;;;8.40;7.80;;;28.00;59.10;;;;;;4990212;28;20460;-72
2023/06/19 01:44:20;;;;;;;8.60;7.90;;;28.00;59.10;;;;;;4993099;28;21162;-72
2023/06/19 01:46:50;;;;;;;8.47;7.83;;;28.00;59.10;;;;;;4989371;28;20475;-72
2023/06/19 01:49:18;;;;;;;8.33;7.73;;;28.00;59.10;;;;;;4962442;28;20468;-72
2023/06/19 01:51:49;;;;;;;8.20;7.60;;;28.00;59.70;;;;;;4998799;28;20441;-72
2023/06/19 01:54:15;;;;;;;8.10;7.40;;;28.00;59.10;;;;;;4991654;28;20456;-72
2023/06/19 01:56:41;;;;;;;8.53;7.87;;;28.00;59.30;;;;;;4991679;28;20464;-72
2023/06/19 01:59:09;;;;;;;8.43;7.80;;;28.00;59.20;;;;;;4983430;28;20568;-72
2023/06/19 02:01:35;;;;;;;8.30;7.80;;;27.90;59.30;;;;;;4970312;28;20472;-72
2023/06/19 02:04:04;;;;;;;9.13;8.43;;;27.90;59.30;;;;;;4960051;28;20489;-72
2023/06/19 02:06:30;;;;;;;8.20;7.70;;;27.90;59.30;;;;;;4942380;28;20457;-72
2023/06/19 02:08:56;;;;;;;8.70;8.00;;;27.90;59.40;;;;;;4958439;28;20444;-71
2023/06/19 02:11:24;;;;;;;7.90;7.30;;;27.90;59.40;;;;;;4986695;28;21012;-72
2023/06/19 02:13:52;;;;;;;8.57;7.77;;;27.90;59.50;;;;;;4960752;28;20859;-72
2023/06/19 02:16:23;;;;;;;8.50;8.00;;;27.80;59.40;;;;;;4974586;28;20477;-72
2023/06/19 02:18:48;;;;;;;8.73;7.93;;;27.90;59.50;;;;;;4991994;28;20456;-72
2023/06/19 02:21:17;;;;;;;8.10;7.50;;;27.90;59.60;;;;;;4984902;28;20457;-72
2023/06/19 02:23:45;;;;;;;9.13;8.47;;;27.90;59.60;;;;;;4988901;28;20444;-72
2023/06/19 02:26:16;;;;;;;7.87;7.37;;;27.80;59.60;;;;;;4991221;28;20520;-72
2023/06/19 02:28:44;;;;;;;9.17;8.57;;;27.80;59.60;;;;;;4939243;28;21019;-73
2023/06/19 02:31:15;;;;;;;8.17;7.47;;;27.80;59.70;;;;;;4984088;28;20897;-73
2023/06/19 02:33:41;;;;;;;8.50;7.80;;;27.80;59.70;;;;;;4958591;28;20437;-73
2023/06/19 02:36:12;;;;;;;8.13;7.53;;;27.70;59.60;;;;;;4967360;28;20445;-73
2023/06/19 02:38:41;;;;;;;9.03;8.43;;;27.80;59.70;;;;;;4990092;28;20468;-73
2023/06/19 02:41:07;;;;;;;9.00;8.40;;;27.70;59.70;;;;;;4988614;28;20421;-73
2023/06/19 02:43:33;;;;;;;8.63;8.03;;;27.70;59.70;;;;;;4972448;28;20457;-73
2023/06/19 02:45:59;;;;;;;9.30;8.40;;;27.80;60.00;;;;;;4990362;28;20445;-73
2023/06/19 02:48:29;;;;;;;8.60;8.00;;;27.70;59.80;;;;;;4956217;28;20430;-73
2023/06/19 02:50:59;;;;;;;8.70;8.10;;;27.70;59.80;;;;;;4992239;28;21076;-73
2023/06/19 02:53:25;;;;;;;9.97;9.17;;;27.70;60.00;;;;;;4968956;28;20440;-73
2023/06/19 02:55:54;;;;;;;9.13;8.43;;;27.60;60.00;;;;;;4954376;28;20460;-73
2023/06/19 02:58:20;;;;;;;8.90;8.30;;;27.70;60.50;;;;;;4985838;28;20414;-73
2023/06/19 03:00:52;;;;;;;8.47;7.77;;;27.70;60.40;;;;;;4987700;28;20477;-73
2023/06/19 03:03:18;;;;;;;9.57;8.90;;;27.70;60.60;;;;;;4974591;28;20465;-73
2023/06/19 03:05:44;;;;;;;8.73;8.13;;;27.60;60.40;;;;;;4988971;28;20528;-73
2023/06/19 03:08:10;;;;;;;8.90;8.30;;;27.60;60.60;;;;;;4987404;28;20421;-73
2023/06/19 03:10:39;;;;;;;8.67;8.07;;;27.60;61.00;;;;;;4958790;28;20423;-73
2023/06/19 03:13:05;;;;;;;8.80;8.17;;;27.50;60.90;;;;;;4974872;28;20409;-73
2023/06/19 03:15:31;;;;;;;9.30;8.63;;;27.50;61.80;;;;;;4989321;28;20464;-73
2023/06/19 03:18:04;;;;;;;8.50;8.00;;;27.50;61.00;;;;;;4972982;28;20426;-73
2023/06/19 03:20:30;;;;;;;9.53;8.73;;;27.50;61.40;;;;;;4987199;28;20421;-73
2023/06/19 03:22:59;;;;;;;9.80;9.10;;;27.50;61.10;;;;;;4961179;28;20841;-73
2023/06/19 03:25:34;;;;;;;7.53;7.03;;;27.50;61.40;;;;;;4968084;28;20454;-73
2023/06/19 03:28:02;;;;;;;9.07;8.27;;;27.40;61.30;;;;;;4955796;28;20449;-73
2023/06/19 03:30:29;;;;;;;8.40;7.80;;;27.40;61.40;;;;;;4969126;28;20493;-72
2023/06/19 03:32:57;;;;;;;8.00;7.40;;;27.40;61.40;;;;;;4991876;28;20443;-73
2023/06/19 03:35:46;;;;;;;7.50;7.00;;;27.40;61.90;;;;;;4982623;28;20886;-72
2023/06/19 03:38:25;;;;;;;8.00;7.23;;;27.40;61.80;;;;;;4989959;28;20440;-74
2023/06/19 03:40:57;;;;;;;7.77;7.27;;;27.40;62.00;;;;;;4957490;28;20437;-73
2023/06/19 03:43:25;;;;;;;7.27;6.77;;;27.40;62.20;;;;;;4989478;28;20952;-73
2023/06/19 03:45:52;;;;;;;7.40;6.90;;;27.40;62.30;;;;;;4990121;28;20444;-73
2023/06/19 03:48:22;;;;;;;7.70;7.20;;;27.40;62.40;;;;;;4973982;28;20478;-72
2023/06/19 03:50:53;;;;;;;6.90;6.50;;;27.30;62.40;;;;;;4971818;28;20417;-73
2023/06/19 03:53:22;;;;;;;6.73;6.30;;;27.30;62.70;;;;;;4984857;28;20475;-72
2023/06/19 03:55:50;;;;;;;6.80;6.40;;;27.30;62.70;;;;;;4983415;28;20511;-72
2023/06/19 03:58:18;;;;;;;6.90;6.30;;;27.30;63.00;;;;;;4974287;28;20421;-72
2023/06/19 04:00:47;;;;;;;7.27;6.77;;;27.20;63.10;;;;;;4972485;28;20938;-73
2023/06/19 04:03:15;;;;;;;7.40;6.93;;;27.30;63.00;;;;;;4992483;28;20456;-72
2023/06/19 04:05:42;;;;;;;7.33;6.73;;;27.30;63.00;;;;;;4991808;28;20201;-72
2023/06/19 04:08:10;;;;;;;6.17;5.77;;;27.30;63.40;;;;;;4984977;28;20417;-72
2023/06/19 04:10:38;;;;;;;6.93;6.43;;;27.30;63.70;;;;;;4994471;28;20459;-72
2023/06/19 04:13:06;;;;;;;6.20;5.70;;;27.30;63.90;;;;;;4995593;28;20448;-73
2023/06/19 04:15:37;;;;;;;6.63;6.20;;;27.20;63.90;;;;;;4977180;28;20981;-72
2023/06/19 04:18:05;;;;;;;6.57;6.17;;;27.20;64.00;;;;;;4977815;28;20560;-73
2023/06/19 04:20:36;;;;;;;7.20;6.60;;;27.20;64.00;;;;;;4998373;28;20913;-72
2023/06/19 04:23:04;;;;;;;7.23;6.70;;;27.20;64.20;;;;;;5012737;28;20479;-72
2023/06/19 04:25:32;;;;;;;6.07;5.67;;;27.10;64.40;;;;;;4996127;28;20444;-72
2023/06/19 04:28:03;;;;;;;6.23;5.83;;;27.10;64.50;;;;;;5013488;28;20427;-72
2023/06/19 04:30:30;;;;;;;5.97;5.57;;;27.10;64.70;;;;;;4974917;28;20440;-73
2023/06/19 04:32:59;;;;;;;6.10;5.70;;;27.10;64.70;;;;;;4982544;28;20819;-72
2023/06/19 04:35:27;;;;;;;6.70;6.30;;;27.10;64.80;;;;;;4978684;28;20461;-72
2023/06/19 04:37:54;;;;;;;6.10;5.70;;;27.10;65.60;;;;;;4973517;28;20436;-71
2023/06/19 04:40:20;;;;;;;5.87;5.47;;;27.00;64.60;;;;;;4989931;28;20450;-72
2023/06/19 04:42:46;;;;;;;5.67;5.37;;;27.00;64.80;;;;;;4941793;28;20557;-72
2023/06/19 04:45:15;;;;;;;6.00;5.60;;;27.00;64.70;;;;;;4974040;28;20430;-72
2023/06/19 04:47:44;;;;;;;5.83;5.33;;;27.00;64.50;;;;;;4958545;28;20410;-72
2023/06/19 04:50:15;;;;;;;6.30;5.90;;;27.00;64.60;;;;;;4973544;28;20473;-72
2023/06/19 04:52:41;;;;;;;6.30;5.90;;;26.90;64.80;;;;;;4989989;28;20430;-73
2023/06/19 04:55:09;;;;;;;5.80;5.40;;;27.00;64.90;;;;;;4957907;28;20457;-72
2023/06/19 04:57:37;;;;;;;5.73;5.33;;;26.90;64.50;;;;;;4974650;28;20414;-72
2023/06/19 05:00:09;;;;;;;5.10;4.80;;;27.00;64.30;;;;;;4981649;28;20440;-72
2023/06/19 05:02:36;;;;;;;6.60;6.10;;;27.00;64.10;;;;;;5001507;28;20461;-72
2023/06/19 05:05:03;;;;;;;6.43;6.03;;;26.90;64.20;;;;;;5006709;28;20922;-72
2023/06/19 05:07:33;;;;;;;6.40;5.80;;;27.00;64.00;;;;;;4999126;28;20449;-72
2023/06/19 05:09:59;;;;;;;6.27;5.87;;;27.00;64.60;;;;;;4992659;28;20437;-72
2023/06/19 05:12:25;;;;;;;5.30;4.90;;;26.90;64.40;;;;;;4993988;28;20413;-72
2023/06/19 05:14:56;;;;;;;6.40;6.00;;;27.00;64.20;;;;;;4993666;28;20421;-72
2023/06/19 05:17:21;;;;;;;7.00;6.20;;;27.00;65.00;;;;;;5010187;28;20424;-72
2023/06/19 05:19:50;;;;;;;6.10;5.70;;;27.00;64.70;;;;;;5011139;28;20515;-72
2023/06/19 05:22:18;;;;;;;5.93;5.40;;;27.00;65.00;;;;;;4992099;28;20611;-72
2023/06/19 05:24:47;;;;;;;5.93;5.43;;;27.00;65.10;;;;;;4972851;28;20178;-72
2023/06/19 05:27:13;;;;;;;6.13;5.57;;;27.00;65.40;;;;;;4972967;28;20441;-71
2023/06/19 05:29:41;;;;;;;5.57;5.27;;;26.90;65.60;;;;;;4978641;28;20410;-72
2023/06/19 05:32:07;;;;;;;5.50;5.10;;;26.90;65.60;;;;;;4967858;28;20771;-73
2023/06/19 05:34:33;;;;;;;6.57;6.07;;;26.90;65.70;;;;;;4995906;28;20200;-72
2023/06/19 05:37:03;;;;;;;6.23;5.83;;;26.90;65.70;;;;;;4960191;28;20474;-72
2023/06/19 05:39:34;;;;;;;5.80;5.40;;;26.90;66.90;;;;;;5011754;28;20458;-72
2023/06/19 05:42:01;;;;;;;5.83;5.43;;;26.80;66.00;;;;;;5007383;28;20933;-71
2023/06/19 05:44:30;;;;;;;5.77;5.43;;;26.80;66.00;;;;;;4983716;28;20417;-72
2023/06/19 05:46:58;;;;;;;7.10;6.70;;;26.80;66.00;;;;;;4973389;28;20462;-72
2023/06/19 05:49:24;;;;;;;6.60;5.70;;;26.90;66.10;;;;;;4956304;28;20426;-72
2023/06/19 05:51:50;;;;;;;5.70;5.33;;;26.80;66.10;;;;;;4993081;28;20946;-72
2023/06/19 05:54:18;;;;;;;5.63;5.33;;;26.80;66.40;;;;;;4991919;28;20663;-72
2023/06/19 05:56:50;;;;;;;6.23;5.83;;;26.70;66.10;;;;;;4992754;28;20472;-72
2023/06/19 05:59:19;;;;;;;5.20;4.90;;;26.80;66.10;;;;;;4992413;28;20448;-72
2023/06/19 06:01:53;;;;;;;5.70;5.30;;;26.80;65.80;;;;;;4992052;28;20477;-72
2023/06/19 06:04:22;;;;;;;5.50;5.00;;;26.80;66.00;;;;;;4992897;28;20885;-72
2023/06/19 06:06:48;;;;;;;6.67;6.23;;;26.80;66.00;;;;;;4975051;28;20448;-72
2023/06/19 06:09:16;;;;;;;5.53;5.23;;;26.80;66.30;;;;;;4991383;28;20786;-72
2023/06/19 06:11:42;;;;;;;6.43;5.93;;;26.80;66.00;;;;;;4965803;28;20804;-71
2023/06/19 06:14:08;;;;;;;5.77;5.37;;;26.80;66.20;;;;;;5011080;28;20428;-72
2023/06/19 06:16:34;;;;;;;6.07;5.67;;;26.70;66.40;;;;;;4994531;28;21058;-72
2023/06/19 06:19:04;;;;;;;6.03;5.63;;;26.80;66.20;;;;;;4994933;28;20482;-72
2023/06/19 06:21:31;;;;;;;6.00;5.60;;;26.70;66.30;;;;;;4994453;28;20476;-72
2023/06/19 06:23:59;;;;;;;5.23;4.93;;;26.80;66.00;;;;;;5012585;28;20416;-72
2023/06/19 06:26:27;;;;;;;6.37;5.97;;;26.70;65.90;;;;;;5010349;28;20797;-72
2023/06/19 06:28:53;;;;;;;5.90;5.50;;;26.80;66.40;;;;;;5009756;28;20184;-72
2023/06/19 06:31:27;;;;;;;5.57;5.17;;;26.70;66.50;;;;;;5010498;28;20415;-72
2023/06/19 06:33:53;;;;;;;5.90;5.60;;;26.70;66.40;;;;;;5010902;28;20483;-72
2023/06/19 06:36:21;;;;;;;6.20;5.87;;;26.80;66.40;;;;;;5010550;28;20443;-72
2023/06/19 06:38:49;;;;;;;5.20;4.80;;;26.70;65.90;;;;;;4994330;28;20416;-72
2023/06/19 06:41:15;;;;;;;4.93;4.63;;;26.70;66.20;;;;;;4994424;28;20672;-72
2023/06/19 06:43:44;;;;;;;5.50;5.20;;;26.70;66.30;;;;;;4994335;28;20439;-72
2023/06/19 06:46:10;;;;;;;6.63;6.13;;;26.80;66.70;;;;;;5010460;28;20228;-72
2023/06/19 06:48:37;;;;;;;5.37;4.97;;;26.70;66.60;;;;;;4994099;28;20479;-72
2023/06/19 06:51:10;;;;;;;5.40;5.10;;;26.70;66.70;;;;;;5011173;28;20439;-72
2023/06/19 06:53:36;;;;;;;5.63;5.30;;;26.70;66.50;;;;;;5010304;28;20416;-72
2023/06/19 06:56:02;;;;;;;5.27;4.87;;;26.70;66.50;;;;;;5009782;28;20547;-72
2023/06/19 06:58:33;;;;;;;5.50;5.20;;;26.70;66.70;;;;;;5010104;28;20472;-72
2023/06/19 07:00:59;;;;;;;5.77;5.37;;;26.60;66.50;;;;;;4994175;28;20430;-72
2023/06/19 07:03:29;;;;;;;5.00;4.70;;;26.70;66.80;;;;;;5011414;28;20476;-72
2023/06/19 07:05:55;;;;;;;5.90;5.40;;;26.70;67.00;;;;;;5010017;28;20435;-72
2023/06/19 07:08:21;;;;;;;4.67;4.37;;;26.70;67.00;;;;;;5011385;28;20448;-72
2023/06/19 07:10:50;;;;;;;5.57;5.20;;;26.70;67.40;;;;;;5010173;28;20424;-72
2023/06/19 07:13:16;;;;;;;5.00;4.70;;;26.70;67.50;;;;;;4990524;28;20859;-72
2023/06/19 07:15:42;;;;;;;4.90;4.60;;;26.70;67.40;;;;;;4974347;28;20456;-72
2023/06/19 07:18:12;;;;;;;5.47;5.03;;;26.70;67.80;;;;;;4990652;28;20724;-72
2023/06/19 07:20:41;;;;;;;5.00;4.70;;;26.60;67.60;;;;;;4974483;28;20417;-72
2023/06/19 07:23:10;;;;;;;5.07;4.60;;;26.60;67.60;;;;;;4990494;28;20472;-72
2023/06/19 07:25:36;;;;;;;5.20;4.80;;;26.60;67.40;;;;;;4991492;28;21007;-73
2023/06/19 07:28:04;;;;;;;5.37;5.07;;;26.60;67.70;;;;;;4990405;28;20925;-72
2023/06/19 07:30:33;;;;;;;4.80;4.50;;;26.60;67.90;;;;;;4990461;28;20456;-72
2023/06/19 07:33:01;;;;;;;5.00;4.70;;;26.60;67.80;;;;;;4990221;28;20424;-72
2023/06/19 07:35:27;;;;;;;5.43;5.03;;;26.60;68.30;;;;;;4990387;28;20449;-72
2023/06/19 07:38:01;;;;;;;6.97;5.33;;;26.60;68.00;;;;;;4974816;28;20487;-72
2023/06/19 07:40:27;;;;;;;6.10;5.60;;;26.60;67.70;;;;;;4991970;28;20823;-72
2023/06/19 07:42:53;;;;;;;4.73;4.43;;;26.60;67.60;;;;;;4994199;28;20477;-73
2023/06/19 07:45:24;;;;;;;5.10;4.80;;;26.60;68.10;;;;;;5015969;28;20435;-72
2023/06/19 07:47:55;;;;;;;5.03;4.73;;;26.60;68.10;;;;;;4997615;28;20571;-73
2023/06/19 07:50:21;;;;;;;5.37;5.07;;;26.60;68.10;;;;;;5013760;28;20430;-72
2023/06/19 07:52:49;;;;;;;5.10;4.70;;;26.60;68.70;;;;;;5013700;28;20476;-73
2023/06/19 07:55:20;;;;;;;6.20;5.80;;;26.60;68.80;;;;;;4997615;28;20463;-72
2023/06/19 07:57:46;;;;;;;6.20;5.07;;;26.60;69.30;;;;;;5013692;28;20449;-72
2023/06/19 08:00:15;;;;;;;5.33;5.03;;;26.60;69.00;;;;;;4997316;28;20448;-72
2023/06/19 08:02:41;;;;;;;4.57;4.27;;;26.60;69.10;;;;;;5014637;28;20459;-72
2023/06/19 08:05:12;;;;;;;4.23;4.03;;;26.50;69.20;;;;;;5012964;28;20441;-72
2023/06/19 08:07:41;;;;;;;7.63;4.90;;;26.60;70.00;;;;;;5013486;28;20423;-73
2023/06/19 08:10:07;;;;;;;5.57;5.17;;;26.50;69.80;;;;;;5014260;28;20408;-73
2023/06/19 08:12:34;;;;;;;5.10;4.70;;;26.50;69.80;;;;;;5000709;28;20464;-72
2023/06/19 08:15:02;;;;;;;4.87;4.57;;;26.50;69.90;;;;;;4993602;28;20456;-72
2023/06/19 08:17:33;;;;;;;6.57;4.43;;;26.50;69.70;;;;;;4993772;28;20509;-73
2023/06/19 08:20:05;;;;;;;4.73;4.43;;;26.50;70.00;;;;;;4993613;28;20844;-72
2023/06/19 08:22:33;;;;;;;5.43;4.93;;;26.50;69.50;;;;;;4977552;28;20465;-72
2023/06/19 08:25:01;;;;;;;4.67;4.27;;;26.50;69.50;;;;;;4993426;28;20920;-72
2023/06/19 08:27:29;;;;;;;5.40;5.03;;;26.40;69.30;;;;;;4977344;28;20516;-72
2023/06/19 08:29:55;;;;;;;5.53;5.03;;;26.40;69.50;;;;;;4993384;28;20497;-72
2023/06/19 08:32:24;;;;;;;5.33;4.87;;;26.50;69.00;;;;;;4993526;28;20425;-72
2023/06/19 08:34:53;;;;;;;4.70;4.40;;;26.50;68.40;;;;;;4995096;28;20425;-72
2023/06/19 08:37:19;;;;;;;7.00;4.87;;;26.50;67.70;;;;;;4994784;28;20476;-72
2023/06/19 08:39:45;;;;;;;4.80;4.40;;;26.50;67.90;;;;;;4994550;28;20170;-72
2023/06/19 08:42:12;;;;;;;5.00;4.60;;;26.60;68.00;;;;;;5003989;28;21059;-73
2023/06/19 08:44:41;;;;;;;4.60;4.30;;;26.60;68.20;;;;;;4996896;28;20460;-72
2023/06/19 08:47:10;;;;;;;5.70;5.20;;;26.50;68.60;;;;;;5012524;28;20519;-72
2023/06/19 08:49:39;;;;;;;5.53;5.13;;;26.60;69.00;;;;;;5012444;28;20447;-72
2023/06/19 08:52:06;;;;;;;5.50;5.00;;;26.60;69.00;;;;;;5013351;28;20826;-72
2023/06/19 08:54:43;;;;;;;5.40;4.90;;;26.60;69.00;;;;;;4996695;28;20439;-72
2023/06/19 08:57:11;;;;;;;5.30;4.80;;;26.60;69.20;;;;;;5012554;28;20552;-72
2023/06/19 08:59:37;;;;;;;4.63;4.33;;;26.60;69.10;;;;;;4996395;28;20451;-72
2023/06/19 09:02:05;;;;;;;4.70;4.30;;;26.60;68.60;;;;;;5012467;28;20997;-72
2023/06/19 09:04:34;;;;;;;5.37;4.87;;;26.60;68.00;;;;;;5012458;28;20432;-72
2023/06/19 09:07:03;;;;;;;5.07;4.73;;;26.60;68.90;;;;;;5012378;28;20428;-72
2023/06/19 09:09:46;;;;;;;5.30;4.87;;;26.60;69.00;;;;;;5006981;23;20584;-89
2023/06/19 09:12:15;;;;;;;4.70;4.40;;;26.60;69.10;;;;;;4967628;28;20505;-94
2023/06/19 09:14:46;;;;;;;4.40;4.10;;;26.60;68.60;;;;;;5000345;28;20436;-88
2023/06/19 09:17:23;;;;;;;5.77;5.30;;;26.60;68.60;;;;;;4990159;28;20456;-89
2023/06/19 09:19:56;;;;;;;4.90;4.40;;;26.60;67.70;;;;;;4983316;28;20416;-88
2023/06/19 09:22:24;;;;;;;6.57;5.13;;;26.60;68.70;;;;;;4999626;28;20473;-88
2023/06/19 09:24:53;;;;;;;5.33;4.97;;;26.60;69.10;;;;;;5000115;28;20420;-88
2023/06/19 09:27:20;;;;;;;4.97;4.57;;;26.60;69.40;;;;;;4983334;28;20428;-87
2023/06/19 09:29:50;;;;;;;6.60;5.30;;;26.70;68.80;;;;;;4999554;28;20451;-91
2023/06/19 09:32:16;;;;;;;5.27;4.87;;;26.70;68.10;;;;;;4999538;28;20776;-89
2023/06/19 09:34:42;;;;;;;6.30;5.90;;;26.80;68.50;;;;;;4965879;28;20444;-87
2023/06/19 09:37:11;;;;;;;4.77;4.47;;;26.70;68.20;;;;;;4999297;28;20194;-88
2023/06/19 09:39:38;;;;;;;5.93;5.37;;;26.80;68.60;;;;;;5016355;28;20431;-91
2023/06/19 09:42:08;;;;;;;4.97;4.57;;;26.90;68.40;;;;;;5016298;28;20491;-88
2023/06/19 09:44:44;;;;;;;5.97;5.40;;;26.80;68.00;;;;;;4983395;28;20451;-88
2023/06/19 09:47:22;;;;;;;6.70;6.10;;;26.80;68.10;;;;;;4999459;28;20530;-89
2023/06/19 09:49:54;;;;;;;6.23;5.83;;;26.80;68.00;;;;;;5016088;28;20416;-88
2023/06/19 09:52:24;;;;;;;5.53;5.13;;;26.90;68.60;;;;;;4998986;28;20418;-88
2023/06/19 09:54:52;;;;;;;5.50;5.20;;;26.90;68.50;;;;;;4998625;28;20531;-88
2023/06/19 09:57:18;;;;;;;6.03;5.43;;;26.90;67.80;;;;;;5015917;28;20519;-89
2023/06/19 09:59:56;;;;;;;5.47;5.07;;;27.00;67.50;;;;;;5015869;28;20466;-88
2023/06/19 10:02:27;;;;;;;5.80;5.40;;;26.90;67.80;;;;;;4982231;28;20455;-85
2023/06/19 10:04:55;;;;;;;6.27;5.77;;;26.90;67.70;;;;;;4982424;28;20540;-88
2023/06/19 10:07:33;;;;;;;6.13;5.53;;;27.00;67.40;;;;;;4999053;28;20531;-88
2023/06/19 10:10:08;;;;;;;6.03;5.50;;;27.00;67.70;;;;;;4998665;28;20455;-88
2023/06/19 10:12:45;;;;;;;6.70;6.23;;;27.00;67.50;;;;;;5002073;28;20444;-86
2023/06/19 10:15:21;;;;;;;6.00;5.50;;;27.10;68.10;;;;;;4978928;28;20492;-86
2023/06/19 10:17:56;;;;;;;5.90;5.37;;;27.10;67.10;;;;;;4979182;28;20429;-88
2023/06/19 10:20:33;;;;;;;7.03;6.43;;;27.00;67.40;;;;;;4979349;28;20408;-86
2023/06/19 10:23:05;;;;;;;6.30;5.80;;;27.10;67.60;;;;;;4962836;28;20456;-90
2023/06/19 10:25:37;;;;;;;6.27;5.87;;;27.20;67.60;;;;;;4995955;28;20445;-89
2023/06/19 10:28:15;;;;;;;6.37;5.97;;;27.20;67.50;;;;;;4978406;28;20425;-88
2023/06/19 10:30:43;;;;;;;6.30;5.80;;;27.20;67.60;;;;;;4962291;28;20933;-88
2023/06/19 10:33:09;;;;;;;6.83;6.33;;;27.10;67.60;;;;;;4978698;28;20405;-88
2023/06/19 10:35:40;;;;;;;6.10;5.60;;;27.20;67.60;;;;;;4978749;28;20178;-86
2023/06/19 10:38:07;;;;;;;6.40;5.80;;;27.20;67.20;;;;;;4978906;28;20518;-87
2023/06/19 10:40:33;;;;;;;6.07;5.50;;;27.20;67.00;;;;;;4995424;28;20898;-88
2023/06/19 10:42:59;;;;;;;8.90;5.73;;;27.30;67.00;;;;;;4962420;28;20468;-87
2023/06/19 10:45:28;;;;;;;6.37;5.97;;;27.30;67.20;;;;;;4995441;28;20421;-88
2023/06/19 10:47:57;;;;;;;6.53;6.03;;;27.30;67.20;;;;;;4995698;28;20418;-87
2023/06/19 10:50:24;;;;;;;6.10;5.63;;;27.40;67.00;;;;;;4995708;28;20481;-87
2023/06/19 10:52:55;;;;;;;6.23;5.83;;;27.40;67.00;;;;;;4978337;28;20508;-87
2023/06/19 10:55:24;;;;;;;6.17;5.77;;;27.40;66.80;;;;;;4978794;28;20512;-89
2023/06/19 10:57:50;;;;;;;6.10;5.70;;;27.50;66.70;;;;;;4978465;28;20436;-88
2023/06/19 11:00:24;;;;;;;6.00;5.60;;;27.50;66.40;;;;;;4977935;28;20862;-86
2023/06/19 11:02:50;;;;;;;7.90;6.40;;;27.50;66.30;;;;;;4977820;28;20486;-87
2023/06/19 11:05:21;;;;;;;7.00;6.50;;;27.50;66.20;;;;;;4995242;28;20432;-87
2023/06/19 11:07:56;;;;;;;6.80;6.30;;;27.60;66.10;;;;;;4995322;28;20409;-86
2023/06/19 11:10:26;;;;;;;6.73;6.23;;;27.60;66.00;;;;;;4984087;28;20452;-88
2023/06/19 11:12:56;;;;;;;6.93;6.43;;;27.60;65.50;;;;;;4977617;28;20493;-86
2023/06/19 11:15:29;;;;;;;7.93;7.33;;;27.60;65.00;;;;;;4987556;28;20449;-88
2023/06/19 11:17:56;;;;;;;8.90;6.73;;;27.60;64.90;;;;;;4947134;28;20448;-88
2023/06/19 11:20:22;;;;;;;7.10;6.60;;;27.70;65.00;;;;;;4979803;28;20476;-88
2023/06/19 11:23:00;;;;;;;7.83;6.57;;;27.70;64.90;;;;;;4979606;28;20458;-86
2023/06/19 11:25:40;;;;;;;7.43;6.80;;;27.70;64.80;;;;;;4962460;28;20438;-87
2023/06/19 11:28:22;;;;;;;6.70;6.20;;;27.70;64.80;;;;;;4946894;28;20460;-87
2023/06/19 11:30:49;;;;;;;7.20;6.50;;;27.80;64.80;;;;;;4962633;28;20406;-87
2023/06/19 11:33:24;;;;;;;6.43;5.97;;;27.90;64.90;;;;;;4979434;28;20426;-88
2023/06/19 11:35:51;;;;;;;6.90;6.40;;;27.80;64.70;;;;;;4979288;28;20751;-86
2023/06/19 11:38:18;;;;;;;7.33;6.70;;;27.90;64.60;;;;;;4962622;28;20560;-90
2023/06/19 11:40:45;;;;;;;6.70;6.20;;;27.90;64.50;;;;;;4962664;28;20445;-87
2023/06/19 11:43:27;;;;;;;7.40;6.80;;;27.90;64.20;;;;;;4962765;28;20466;-87
2023/06/19 11:45:56;;;;;;;7.10;6.60;;;27.90;64.10;;;;;;4946601;28;20780;-88
2023/06/19 11:48:28;;;;;;;8.20;7.70;;;28.00;64.00;;;;;;4979031;28;20508;-88
2023/06/19 11:50:57;;;;;;;6.30;5.90;;;28.00;64.00;;;;;;4979112;28;20406;-86
2023/06/19 11:53:29;;;;;;;7.77;7.07;;;28.00;63.80;;;;;;4962680;28;20441;-86
2023/06/19 11:56:00;;;;;;;7.43;6.63;;;28.00;63.70;;;;;;4962728;28;20411;-89
2023/06/19 11:58:28;;;;;;;7.03;6.37;;;28.10;63.60;;;;;;4962126;28;20482;-86
2023/06/19 12:00:56;;;;;;;6.93;6.43;;;28.10;63.60;;;;;;4962108;28;20426;-85
2023/06/19 12:03:22;;;;;;;7.47;6.87;;;28.10;63.30;;;;;;4929791;28;20504;-87
2023/06/19 12:05:52;;;;;;;7.87;7.27;;;28.10;63.40;;;;;;4962201;28;20492;-88
2023/06/19 12:08:18;;;;;;;7.53;6.93;;;28.20;63.30;;;;;;4946063;28;20779;-85
2023/06/19 12:10:46;;;;;;;7.40;6.90;;;28.20;63.30;;;;;;4946090;28;20444;-87
2023/06/19 12:13:12;;;;;;;8.40;7.60;;;28.20;63.20;;;;;;5000648;28;20197;-86
2023/06/19 12:15:41;;;;;;;8.57;7.90;;;28.30;63.10;;;;;;5020581;28;20432;-87
2023/06/19 12:18:12;;;;;;;7.93;7.40;;;28.30;63.80;;;;;;5003774;28;20460;-87
2023/06/19 12:20:40;;;;;;;8.27;7.47;;;28.30;62.80;;;;;;5004050;28;20504;-87
2023/06/19 12:23:10;;;;;;;8.80;8.20;;;28.40;62.70;;;;;;5005719;28;20515;-85
2023/06/19 12:25:39;;;;;;;7.70;7.10;;;28.40;62.40;;;;;;5022989;28;20459;-87
2023/06/19 12:28:07;;;;;;;7.53;6.93;;;28.40;62.40;;;;;;5022963;28;20421;-87
2023/06/19 12:30:34;;;;;;;7.70;7.20;;;28.50;62.10;;;;;;5023160;28;20463;-87
2023/06/19 12:33:00;;;;;;;8.13;7.53;;;28.50;62.00;;;;;;5008197;28;20420;-87
2023/06/19 12:35:26;;;;;;;8.43;7.73;;;28.50;61.50;;;;;;5008707;28;20424;-87
2023/06/19 12:37:54;;;;;;;7.73;7.13;;;28.50;61.70;;;;;;5008783;28;20446;-87
2023/06/19 12:40:21;;;;;;;9.20;8.30;;;28.60;61.50;;;;;;5008448;28;20212;-86
2023/06/19 12:42:47;;;;;;;7.60;7.00;;;28.60;61.60;;;;;;5008253;28;20486;-86
2023/06/19 12:45:12;;;;;;;8.20;7.70;;;28.70;61.40;;;;;;5010892;28;20416;-88
2023/06/19 12:47:41;;;;;;;7.90;7.40;;;28.70;61.30;;;;;;4973796;28;20808;-86
2023/06/19 12:50:07;;;;;;;7.87;7.37;;;28.70;60.90;;;;;;5021311;28;20411;-86
2023/06/19 12:52:35;;;;;;;8.47;7.70;;;28.70;61.00;;;;;;4988768;28;20514;-87
2023/06/19 12:55:01;;;;;;;7.90;7.40;;;28.70;60.90;;;;;;4984666;28;20444;-87
2023/06/19 12:57:32;;;;;;;8.30;7.63;;;28.80;61.20;;;;;;4999987;28;20432;-87